createdAt,value
2023-02-19T00:01:09.503Z,27.13
2023-02-19T00:04:15.439Z,27.13
2023-02-19T00:07:19.922Z,27.30
2023-02-19T00:10:22.946Z,28.63
2023-02-19T00:13:25.956Z,27.77
2023-02-19T00:16:31.134Z,28.07
2023-02-19T00:19:34.386Z,29.53
2023-02-19T00:22:38.730Z,27.73
2023-02-19T00:25:41.745Z,29.37
2023-02-19T00:28:44.724Z,30.23
2023-02-19T00:31:48.186Z,31.40
2023-02-19T00:34:51.194Z,30.43
2023-02-19T00:37:55.578Z,30.57
2023-02-19T00:41:00.881Z,31.03
2023-02-19T00:44:05.853Z,31.83
2023-02-19T00:47:09.106Z,33.03
2023-02-19T00:50:12.209Z,34.90
2023-02-19T00:53:16.584Z,33.80
2023-02-19T00:56:20.136Z,33.43
2023-02-19T00:59:23.146Z,34.80
2023-02-19T01:02:27.131Z,35.33
2023-02-19T01:05:30.176Z,35.40
2023-02-19T01:08:35.248Z,35.30
2023-02-19T01:11:38.577Z,35.00
2023-02-19T01:14:41.691Z,35.00
2023-02-19T01:17:44.703Z,36.53
2023-02-19T01:20:48.023Z,34.73
2023-02-19T01:23:53.426Z,35.70
2023-02-19T01:26:56.412Z,34.57
2023-02-19T01:29:59.443Z,33.70
2023-02-19T01:33:02.502Z,34.00
2023-02-19T01:36:06.767Z,35.33
2023-02-19T01:39:12.502Z,35.17
2023-02-19T01:42:17.012Z,34.30
2023-02-19T01:45:25.104Z,34.40
2023-02-19T01:48:32.656Z,33.83
2023-02-19T01:51:39.312Z,32.70
2023-02-19T01:54:45.657Z,33.53
2023-02-19T01:57:53.106Z,35.40
2023-02-19T02:00:56.294Z,33.03
2023-02-19T02:03:59.497Z,31.70
2023-02-19T02:07:24.559Z,33.50
2023-02-19T02:10:27.948Z,33.03
2023-02-19T02:13:31.455Z,33.70
2023-02-19T02:16:45.491Z,34.07
2023-02-19T02:20:04.029Z,32.73
2023-02-19T02:23:17.530Z,34.03
2023-02-19T02:26:39.210Z,33.13
2023-02-19T02:30:21.734Z,33.03
2023-02-19T02:33:32.767Z,34.37
2023-02-19T02:36:39.693Z,32.23
2023-02-19T02:39:43.975Z,32.37
2023-02-19T02:42:47.125Z,33.80
2023-02-19T02:45:51.593Z,33.17
2023-02-19T02:48:58.685Z,31.70
2023-02-19T02:52:23.453Z,33.00
2023-02-19T02:55:26.337Z,33.13
2023-02-19T02:58:30.326Z,33.57
2023-02-19T03:01:56.642Z,32.50
2023-02-19T03:05:21.988Z,33.63
2023-02-19T03:08:29.399Z,33.73
2023-02-19T03:11:51.826Z,32.77
2023-02-19T03:15:18.189Z,32.40
2023-02-19T03:18:41.820Z,32.97
2023-02-19T03:21:46.938Z,33.10
2023-02-19T03:25:12.689Z,32.90
2023-02-19T03:28:18.176Z,31.40
2023-02-19T03:31:23.596Z,31.83
2023-02-19T03:34:33.678Z,33.53
2023-02-19T03:37:42.817Z,32.53
2023-02-19T03:40:55.783Z,32.97
2023-02-19T03:44:08.927Z,34.90
2023-02-19T03:47:19.566Z,33.50
2023-02-19T03:50:28.764Z,33.43
2023-02-19T03:53:37.798Z,34.07
2023-02-19T03:56:46.669Z,33.97
2023-02-19T03:59:55.300Z,32.97
2023-02-19T04:03:06.933Z,31.97
2023-02-19T04:06:16.748Z,33.60
2023-02-19T04:09:22.126Z,32.00
2023-02-19T04:12:25.921Z,33.60
2023-02-19T04:15:32.321Z,32.90
2023-02-19T04:18:39.739Z,30.20
2023-02-19T04:21:46.591Z,31.43
2023-02-19T04:24:52.077Z,30.90
2023-02-19T04:27:55.317Z,32.70
2023-02-19T04:30:58.401Z,31.67
2023-02-19T04:34:01.371Z,32.27
2023-02-19T04:37:06.379Z,32.43
2023-02-19T04:40:10.830Z,32.20
2023-02-19T04:43:13.904Z,32.53
2023-02-19T04:46:17.295Z,32.87
2023-02-19T04:49:20.383Z,31.43
2023-02-19T04:52:24.842Z,31.60
2023-02-19T04:55:27.787Z,31.10
2023-02-19T04:58:32.191Z,31.07
2023-02-19T05:01:35.195Z,30.90
2023-02-19T05:04:38.225Z,30.47
2023-02-19T05:07:42.608Z,29.43
2023-02-19T05:10:45.635Z,29.97
2023-02-19T05:13:48.658Z,30.60
2023-02-19T05:16:51.656Z,28.90
2023-02-19T05:19:54.733Z,29.07
2023-02-19T05:22:59.086Z,29.77
2023-02-19T05:26:06.763Z,28.87
2023-02-19T05:29:09.821Z,26.60
2023-02-19T05:32:12.938Z,29.60
2023-02-19T05:35:16.238Z,27.37
2023-02-19T05:38:20.929Z,26.83
2023-02-19T05:41:26.477Z,27.40
2023-02-19T05:44:29.473Z,27.50
2023-02-19T05:47:32.484Z,25.20
2023-02-19T05:50:39.705Z,24.67
2023-02-19T05:53:45.228Z,24.80
2023-02-19T05:56:48.343Z,24.13
2023-02-19T05:59:51.400Z,23.20
2023-02-19T06:02:55.238Z,22.80
2023-02-19T06:05:58.291Z,21.70
2023-02-19T06:09:02.690Z,22.73
2023-02-19T06:12:06.185Z,21.80
2023-02-19T06:15:09.684Z,21.27
2023-02-19T06:18:12.662Z,19.93
2023-02-19T06:21:17.101Z,20.03
2023-02-19T06:24:21.517Z,18.83
2023-02-19T06:27:24.531Z,17.50
2023-02-19T06:30:27.621Z,17.60
2023-02-19T06:33:30.738Z,16.43
2023-02-19T06:36:33.803Z,16.80
2023-02-19T06:39:38.434Z,17.93
2023-02-19T06:42:41.445Z,17.67
2023-02-19T06:45:44.457Z,18.03
2023-02-19T06:48:47.515Z,19.40
2023-02-19T06:51:50.537Z,26.30
2023-02-19T06:54:55.302Z,23.10
2023-02-19T06:57:59.017Z,22.43
2023-02-19T07:01:02.114Z,24.90
2023-02-19T07:04:06.028Z,24.27
2023-02-19T07:07:12.990Z,22.73
2023-02-19T07:10:18.067Z,23.07
2023-02-19T07:13:21.018Z,23.40
2023-02-19T07:16:24.403Z,21.30
2023-02-19T07:19:27.442Z,21.23
2023-02-19T07:22:30.353Z,20.77
2023-02-19T07:25:34.704Z,17.90
2023-02-19T07:28:37.671Z,18.17
2023-02-19T07:31:40.763Z,17.40
2023-02-19T07:34:43.792Z,17.57
2023-02-19T07:37:48.380Z,16.87
2023-02-19T07:40:56.446Z,15.93
2023-02-19T07:43:59.618Z,14.77
2023-02-19T07:47:02.676Z,13.60
2023-02-19T07:50:05.931Z,14.57
2023-02-19T07:53:09.384Z,12.40
2023-02-19T07:56:15.033Z,12.13
2023-02-19T07:59:19.546Z,12.67
2023-02-19T08:02:40.101Z,13.00
2023-02-19T08:05:45.127Z,11.90
2023-02-19T08:08:48.371Z,11.73
2023-02-19T08:12:09.985Z,11.87
2023-02-19T08:15:13.009Z,11.40
2023-02-19T08:18:17.468Z,10.93
2023-02-19T08:21:21.173Z,11.37
2023-02-19T08:24:24.186Z,11.30
2023-02-19T08:27:28.523Z,10.07
2023-02-19T08:30:32.894Z,9.83
2023-02-19T08:33:36.526Z,9.77
2023-02-19T08:36:39.860Z,9.13
2023-02-19T08:39:42.889Z,9.60
2023-02-19T08:42:47.317Z,10.77
2023-02-19T08:45:53.573Z,11.50
2023-02-19T08:48:56.554Z,10.73
2023-02-19T08:51:59.585Z,10.40
2023-02-19T08:55:02.742Z,11.80
2023-02-19T08:58:07.348Z,11.97
2023-02-19T09:01:12.095Z,9.33
2023-02-19T09:04:15.398Z,10.77
2023-02-19T09:07:18.980Z,8.13
2023-02-19T09:10:22.055Z,8.87
2023-02-19T09:13:26.495Z,9.20
2023-02-19T09:16:29.518Z,9.23
2023-02-19T09:19:33.350Z,11.77
2023-02-19T09:22:36.417Z,11.80
2023-02-19T09:25:39.420Z,8.70
2023-02-19T09:28:43.808Z,8.50
2023-02-19T09:31:47.068Z,9.10
2023-02-19T09:34:51.086Z,7.53
2023-02-19T09:37:54.133Z,8.10
2023-02-19T09:40:58.113Z,8.17
2023-02-19T09:44:04.573Z,8.30
2023-02-19T09:47:16.568Z,7.17
2023-02-19T09:50:24.139Z,8.47
2023-02-19T09:53:36.369Z,8.23
2023-02-19T09:56:39.528Z,8.47
2023-02-19T09:59:47.938Z,8.80
2023-02-19T10:02:54.386Z,9.23
2023-02-19T10:05:59.055Z,9.13
2023-02-19T10:09:17.624Z,8.83
2023-02-19T10:12:25.932Z,9.90
2023-02-19T10:15:35.888Z,9.80
2023-02-19T10:18:42.392Z,9.07
2023-02-19T10:21:46.057Z,9.43
2023-02-19T10:24:53.449Z,9.40
2023-02-19T10:27:58.737Z,9.87
2023-02-19T10:31:06.686Z,8.70
2023-02-19T10:34:22.512Z,10.07
2023-02-19T10:37:25.521Z,8.90
2023-02-19T10:40:29.981Z,9.67
2023-02-19T10:43:37.532Z,9.07
2023-02-19T10:46:46.755Z,9.70
2023-02-19T10:49:51.432Z,9.80
2023-02-19T10:52:57.689Z,9.63
2023-02-19T10:56:09.336Z,9.67
2023-02-19T10:59:26.246Z,9.27
2023-02-19T11:02:32.083Z,8.90
2023-02-19T11:05:35.667Z,8.40
2023-02-19T11:08:55.284Z,8.50
2023-02-19T11:11:59.711Z,8.00
2023-02-19T11:15:22.497Z,8.77
2023-02-19T11:18:29.102Z,15.73
2023-02-19T11:21:33.033Z,7.07
2023-02-19T11:24:40.598Z,10.13
2023-02-19T11:27:56.249Z,8.00
2023-02-19T11:31:16.715Z,7.97
2023-02-19T11:34:31.684Z,7.10
2023-02-19T11:37:34.654Z,6.60
2023-02-19T11:40:42.394Z,7.03
2023-02-19T11:44:08.888Z,6.43
2023-02-19T11:47:37.505Z,7.00
2023-02-19T11:50:53.212Z,5.73
2023-02-19T11:54:09.075Z,6.50
2023-02-19T11:57:30.622Z,6.40
2023-02-19T12:00:42.021Z,6.67
2023-02-19T12:04:26.592Z,6.93
2023-02-19T12:07:51.536Z,5.90
2023-02-19T12:11:10.925Z,6.33
2023-02-19T12:14:35.030Z,6.30
2023-02-19T12:17:56.557Z,6.00
2023-02-19T12:21:12.136Z,6.10
2023-02-19T12:24:42.474Z,5.57
2023-02-19T12:27:57.046Z,7.10
2023-02-19T12:31:13.299Z,5.87
2023-02-19T12:34:36.210Z,6.40
2023-02-19T12:37:48.018Z,6.17
2023-02-19T12:41:05.187Z,6.57
2023-02-19T12:44:13.235Z,5.97
2023-02-19T12:47:20.607Z,6.20
2023-02-19T12:50:26.564Z,9.70
2023-02-19T12:53:41.381Z,6.00
2023-02-19T12:56:51.666Z,5.93
2023-02-19T13:00:03.084Z,5.50
2023-02-19T13:03:12.409Z,5.47
2023-02-19T13:06:25.573Z,6.10
2023-02-19T13:09:34.515Z,5.43
2023-02-19T13:12:43.428Z,4.97
2023-02-19T13:15:51.506Z,5.17
2023-02-19T13:18:59.452Z,5.20
2023-02-19T13:22:31.202Z,5.87
2023-02-19T13:25:50.342Z,4.60
2023-02-19T13:29:05.929Z,5.00
2023-02-19T13:32:51.032Z,5.50
2023-02-19T13:36:10.241Z,5.70
2023-02-19T13:42:28.015Z,5.27
2023-02-19T13:45:39.533Z,4.97
2023-02-19T13:48:44.497Z,4.80
2023-02-19T13:51:51.215Z,4.73
2023-02-19T13:55:14.229Z,5.27
2023-02-19T13:58:54.769Z,5.63
2023-02-19T14:02:30.771Z,4.90
2023-02-19T14:06:00.955Z,4.97
2023-02-19T14:09:03.964Z,4.60
2023-02-19T14:12:20.093Z,5.03
2023-02-19T14:15:51.355Z,4.87
2023-02-19T14:18:56.373Z,4.50
2023-02-19T14:22:00.859Z,6.33
2023-02-19T14:25:08.204Z,6.93
2023-02-19T14:28:52.426Z,7.00
2023-02-19T14:31:57.407Z,7.17
2023-02-19T14:35:00.587Z,8.23
2023-02-19T14:38:06.328Z,8.17
2023-02-19T14:41:13.671Z,8.70
2023-02-19T14:44:21.168Z,8.80
2023-02-19T14:47:26.930Z,8.70
2023-02-19T14:50:32.458Z,8.93
2023-02-19T14:53:40.816Z,9.17
2023-02-19T14:56:46.819Z,9.47
2023-02-19T14:59:55.006Z,9.53
2023-02-19T15:03:00.150Z,9.63
2023-02-19T15:06:06.827Z,9.73
2023-02-19T15:09:11.356Z,9.37
2023-02-19T15:12:20.110Z,9.47
2023-02-19T15:15:26.795Z,9.57
2023-02-19T15:18:35.697Z,8.63
2023-02-19T15:21:44.624Z,7.50
2023-02-19T15:24:49.185Z,8.67
2023-02-19T15:27:52.207Z,8.50
2023-02-19T15:31:07.840Z,8.93
2023-02-19T15:34:17.738Z,8.53
2023-02-19T15:37:21.286Z,8.87
2023-02-19T15:40:32.465Z,8.07
2023-02-19T15:43:44.610Z,8.97
2023-02-19T15:46:49.010Z,8.17
2023-02-19T15:49:58.468Z,9.87
2023-02-19T15:53:07.125Z,7.77
2023-02-19T15:56:17.590Z,8.43
2023-02-19T15:59:27.006Z,9.07
2023-02-19T16:02:30.602Z,8.57
2023-02-19T16:05:39.360Z,8.77
2023-02-19T16:08:43.900Z,9.73
2023-02-19T16:11:53.348Z,9.40
2023-02-19T16:14:56.384Z,7.90
2023-02-19T16:18:00.401Z,9.80
2023-02-19T16:21:07.214Z,14.40
2023-02-19T16:24:18.155Z,9.70
2023-02-19T16:27:32.643Z,11.47
2023-02-19T16:30:36.335Z,11.00
2023-02-19T16:33:41.362Z,11.20
2023-02-19T16:36:46.301Z,10.70
2023-02-19T16:39:49.753Z,10.57
2023-02-19T16:43:29.237Z,10.73
2023-02-19T16:46:32.288Z,10.50
2023-02-19T16:49:35.594Z,10.43
2023-02-19T16:52:42.364Z,14.00
2023-02-19T16:55:45.448Z,10.13
2023-02-19T16:58:49.921Z,10.60
2023-02-19T17:01:53.141Z,9.47
2023-02-19T17:04:56.426Z,10.20
2023-02-19T17:07:59.744Z,11.70
2023-02-19T17:11:04.067Z,9.53
2023-02-19T17:14:09.365Z,9.80
2023-02-19T17:17:12.455Z,8.97
2023-02-19T17:20:24.084Z,9.37
2023-02-19T17:23:27.104Z,9.50
2023-02-19T17:26:31.987Z,11.83
2023-02-19T17:29:37.216Z,9.10
2023-02-19T17:32:40.324Z,9.00
2023-02-19T17:35:44.970Z,8.50
2023-02-19T17:38:48.376Z,8.47
2023-02-19T17:41:51.986Z,9.10
2023-02-19T17:44:56.537Z,10.10
2023-02-19T17:47:59.915Z,7.77
2023-02-19T17:51:02.910Z,11.17
2023-02-19T17:54:08.287Z,10.20
2023-02-19T17:57:11.526Z,9.70
2023-02-19T18:00:18.124Z,8.73
2023-02-19T18:03:21.338Z,7.93
2023-02-19T18:06:24.365Z,7.67
2023-02-19T18:09:27.522Z,7.83
2023-02-19T18:12:30.587Z,7.73
2023-02-19T18:15:35.031Z,9.80
2023-02-19T18:18:38.282Z,7.30
2023-02-19T18:21:41.378Z,7.40
2023-02-19T18:24:46.872Z,7.37
2023-02-19T18:27:50.436Z,7.10
2023-02-19T18:30:55.051Z,7.80
2023-02-19T18:33:58.089Z,6.30
2023-02-19T18:37:01.128Z,6.87
2023-02-19T18:40:05.643Z,6.90
2023-02-19T18:43:08.919Z,6.70
2023-02-19T18:46:13.347Z,6.53
2023-02-19T18:49:17.489Z,6.77
2023-02-19T18:52:23.948Z,6.30
2023-02-19T18:55:26.965Z,7.13
2023-02-19T18:58:29.957Z,6.30
2023-02-19T19:01:34.435Z,6.63
2023-02-19T19:04:38.676Z,6.00
2023-02-19T19:07:41.896Z,6.47
2023-02-19T19:10:45.049Z,6.10
2023-02-19T19:13:48.021Z,6.77
2023-02-19T19:16:52.475Z,6.70
2023-02-19T19:19:56.450Z,7.40
2023-02-19T19:22:59.479Z,7.97
2023-02-19T19:26:02.510Z,7.33
2023-02-19T19:29:05.565Z,9.80
2023-02-19T19:32:10.890Z,10.33
2023-02-19T19:35:13.938Z,10.10
2023-02-19T19:38:17.271Z,10.80
2023-02-19T19:41:21.245Z,10.60
2023-02-19T19:44:24.707Z,13.17
2023-02-19T19:47:29.179Z,11.27
2023-02-19T19:50:32.269Z,10.47
2023-02-19T19:53:35.375Z,11.07
2023-02-19T19:56:42.255Z,11.20
2023-02-19T19:59:45.372Z,11.07
2023-02-19T20:02:52.130Z,11.93
2023-02-19T20:05:56.039Z,11.60
2023-02-19T20:08:59.715Z,12.03
2023-02-19T20:12:03.431Z,11.90
2023-02-19T20:15:07.266Z,10.83
2023-02-19T20:18:11.727Z,10.90
2023-02-19T20:21:15.365Z,11.20
2023-02-19T20:24:19.865Z,10.33
2023-02-19T20:27:24.394Z,10.90
2023-02-19T20:30:27.492Z,10.43
2023-02-19T20:33:31.889Z,10.27
2023-02-19T20:36:34.983Z,11.30
2023-02-19T20:39:38.056Z,10.20
2023-02-19T20:42:41.116Z,11.40
2023-02-19T20:45:46.966Z,11.10
2023-02-19T20:48:52.020Z,10.70
2023-02-19T20:51:58.177Z,11.80
2023-02-19T20:55:01.238Z,15.23
2023-02-19T20:58:04.498Z,16.03
2023-02-19T21:01:08.360Z,19.10
2023-02-19T21:04:13.100Z,22.10
2023-02-19T21:07:16.444Z,21.70
2023-02-19T21:10:19.786Z,21.60
2023-02-19T21:13:23.292Z,22.50
2023-02-19T21:16:26.620Z,20.87
2023-02-19T21:19:31.096Z,21.90
2023-02-19T21:22:34.146Z,21.87
2023-02-19T21:25:37.349Z,21.90
2023-02-19T21:28:40.738Z,21.87
2023-02-19T21:31:45.801Z,21.50
2023-02-19T21:34:50.283Z,21.60
2023-02-19T21:37:53.328Z,21.43
2023-02-19T21:40:56.414Z,21.57
2023-02-19T21:43:59.809Z,22.20
2023-02-19T21:47:02.943Z,21.00
2023-02-19T21:50:08.718Z,20.53
2023-02-19T21:53:11.754Z,21.40
2023-02-19T21:56:23.286Z,19.93
2023-02-19T21:59:26.492Z,20.93
2023-02-19T22:02:29.498Z,21.63
2023-02-19T22:05:33.913Z,19.00
2023-02-19T22:08:36.910Z,18.90
2023-02-19T22:11:40.029Z,19.80
2023-02-19T22:14:43.054Z,19.90
2023-02-19T22:17:46.828Z,19.77
2023-02-19T22:20:51.283Z,19.47
2023-02-19T22:23:55.922Z,19.03
2023-02-19T22:27:00.189Z,18.07
2023-02-19T22:30:03.361Z,19.20
2023-02-19T22:33:06.448Z,19.87
2023-02-19T22:36:16.380Z,18.90
2023-02-19T22:39:21.930Z,20.00
2023-02-19T22:42:25.409Z,18.60
2023-02-19T22:45:28.444Z,17.90
2023-02-19T22:48:31.604Z,18.03
2023-02-19T22:51:36.756Z,18.53
2023-02-19T22:54:40.844Z,17.80
2023-02-19T22:57:43.936Z,18.27
2023-02-19T23:00:47.010Z,17.53
2023-02-19T23:03:52.267Z,18.37
2023-02-19T23:06:56.758Z,18.03
2023-02-19T23:09:59.901Z,18.23
2023-02-19T23:13:02.925Z,16.93
2023-02-19T23:16:06.292Z,17.77
2023-02-19T23:19:11.697Z,17.77
2023-02-19T23:22:16.160Z,16.63
2023-02-19T23:25:19.260Z,16.73
2023-02-19T23:28:22.370Z,15.63
2023-02-19T23:31:26.859Z,17.23
2023-02-19T23:34:29.947Z,17.23
2023-02-19T23:37:34.288Z,18.10
2023-02-19T23:40:37.517Z,17.37
2023-02-19T23:43:40.543Z,17.23
2023-02-19T23:46:43.915Z,16.93
2023-02-19T23:49:46.986Z,16.90
2023-02-19T23:52:51.374Z,16.87
2023-02-19T23:55:54.396Z,16.97
2023-02-19T23:58:57.460Z,18.07
